createdAt,value
2022-10-13T00:00:47.418Z,93.98
2022-10-13T00:03:14.597Z,94.52
2022-10-13T00:05:42.909Z,95.53
2022-10-13T00:08:10.577Z,96.35
2022-10-13T00:10:41.904Z,96.36
2022-10-13T00:13:12.195Z,96.36
2022-10-13T00:15:41.398Z,97.08
2022-10-13T00:18:08.068Z,96.30
2022-10-13T00:20:35.561Z,96.36
2022-10-13T00:23:02.172Z,95.75
2022-10-13T00:25:28.722Z,95.38
2022-10-13T00:27:55.303Z,95.76
2022-10-13T00:30:27.071Z,95.72
2022-10-13T00:32:53.602Z,95.87
2022-10-13T00:35:20.117Z,96.22
2022-10-13T00:37:46.686Z,95.16
2022-10-13T00:40:13.259Z,95.26
2022-10-13T00:42:41.598Z,95.13
2022-10-13T00:45:22.252Z,95.29
2022-10-13T00:47:55.266Z,95.95
2022-10-13T00:50:26.194Z,96.43
2022-10-13T00:52:57.037Z,96.69
2022-10-13T00:55:31.218Z,96.22
2022-10-13T00:58:05.213Z,97.12
2022-10-13T01:00:34.031Z,97.59
2022-10-13T01:03:02.936Z,97.41
2022-10-13T01:05:30.931Z,97.43
2022-10-13T01:07:59.404Z,97.38
2022-10-13T01:10:42.288Z,97.59
2022-10-13T01:13:18.233Z,97.57
2022-10-13T01:16:00.960Z,98.47
2022-10-13T01:18:46.357Z,98.05
2022-10-13T01:21:19.627Z,97.97
2022-10-13T01:24:20.904Z,97.69
2022-10-13T01:27:08.746Z,97.91
2022-10-13T01:30:06.549Z,97.13
2022-10-13T01:32:54.382Z,97.97
2022-10-13T01:35:33.447Z,98.04
2022-10-13T01:38:21.972Z,97.98
2022-10-13T01:41:19.698Z,98.08
2022-10-13T01:43:55.935Z,98.82
2022-10-13T01:46:27.733Z,97.67
2022-10-13T01:48:58.140Z,97.09
2022-10-13T01:51:27.985Z,97.54
2022-10-13T01:53:54.634Z,97.58
2022-10-13T01:56:21.161Z,97.35
2022-10-13T01:58:49.790Z,98.03
2022-10-13T02:01:35.264Z,97.36
2022-10-13T02:04:35.971Z,97.12
2022-10-13T02:07:11.200Z,98.06
2022-10-13T02:10:04.445Z,97.97
2022-10-13T02:12:38.334Z,97.75
2022-10-13T02:15:09.030Z,97.84
2022-10-13T02:17:35.809Z,98.55
2022-10-13T02:20:05.955Z,98.05
2022-10-13T02:22:42.238Z,99.16
2022-10-13T02:25:09.559Z,99.11
2022-10-13T02:27:36.119Z,98.49
2022-10-13T02:30:03.522Z,99.34
2022-10-13T02:32:30.643Z,99.08
2022-10-13T02:34:57.349Z,99.73
2022-10-13T02:37:25.698Z,100.00
2022-10-13T02:39:52.795Z,100.00
2022-10-13T02:42:19.824Z,100.00
2022-10-13T02:44:46.858Z,100.00
2022-10-13T02:47:13.400Z,100.00
2022-10-13T02:49:40.182Z,100.00
2022-10-13T02:52:06.844Z,100.00
2022-10-13T02:54:33.405Z,100.00
2022-10-13T02:57:00.011Z,100.00
2022-10-13T02:59:26.621Z,100.00
2022-10-13T03:01:53.179Z,100.00
2022-10-13T03:04:19.737Z,100.00
2022-10-13T03:06:46.301Z,100.00
2022-10-13T03:09:13.537Z,100.00
2022-10-13T03:11:43.414Z,100.00
2022-10-13T03:14:10.054Z,100.00
2022-10-13T03:16:36.675Z,100.00
2022-10-13T03:19:03.228Z,100.00
2022-10-13T03:21:29.804Z,100.00
2022-10-13T03:23:56.485Z,100.00
2022-10-13T03:26:24.184Z,100.00
2022-10-13T03:28:51.514Z,100.00
2022-10-13T03:31:18.808Z,100.00
2022-10-13T03:33:46.651Z,100.00
2022-10-13T03:36:13.577Z,100.00
2022-10-13T03:38:42.286Z,100.00
2022-10-13T03:41:11.875Z,100.00
2022-10-13T03:43:39.028Z,100.00
2022-10-13T03:46:07.165Z,100.00
2022-10-13T03:48:35.939Z,100.00
2022-10-13T03:51:08.091Z,100.00
2022-10-13T03:53:35.351Z,100.00
2022-10-13T03:56:02.272Z,100.00
2022-10-13T03:58:34.520Z,100.00
2022-10-13T04:01:05.356Z,100.00
2022-10-13T04:03:33.196Z,100.00
2022-10-13T04:06:01.931Z,100.00
2022-10-13T04:08:29.694Z,100.00
2022-10-13T04:11:07.855Z,100.00
2022-10-13T04:13:34.983Z,100.00
2022-10-13T04:16:06.923Z,100.00
2022-10-13T04:18:34.079Z,100.00
2022-10-13T04:21:01.176Z,100.00
2022-10-13T04:23:27.752Z,100.00
2022-10-13T04:25:54.385Z,100.00
2022-10-13T04:28:21.020Z,100.00
2022-10-13T04:30:49.512Z,100.00
2022-10-13T04:33:16.483Z,100.00
2022-10-13T04:35:43.115Z,100.00
2022-10-13T04:38:09.705Z,100.00
2022-10-13T04:40:36.310Z,100.00
2022-10-13T04:43:03.075Z,100.00
2022-10-13T04:45:29.797Z,100.00
2022-10-13T04:47:56.362Z,100.00
2022-10-13T04:50:23.031Z,100.00
2022-10-13T04:52:59.423Z,100.00
2022-10-13T04:55:26.300Z,100.00
2022-10-13T04:57:52.803Z,100.00
2022-10-13T05:00:19.468Z,100.00
2022-10-13T05:02:46.045Z,100.00
2022-10-13T05:05:12.613Z,100.00
2022-10-13T05:07:39.244Z,100.00
2022-10-13T05:10:06.128Z,100.00
2022-10-13T05:12:33.536Z,100.00
2022-10-13T05:15:00.732Z,100.00
2022-10-13T05:17:34.854Z,100.00
2022-10-13T05:20:06.028Z,100.00
2022-10-13T05:22:32.869Z,100.00
2022-10-13T05:24:59.366Z,100.00
2022-10-13T05:27:25.955Z,100.00
2022-10-13T05:29:52.491Z,100.00
2022-10-13T05:32:19.263Z,100.00
2022-10-13T05:34:48.579Z,100.00
2022-10-13T05:37:17.019Z,100.00
2022-10-13T05:39:48.457Z,100.00
2022-10-13T05:42:15.424Z,100.00
2022-10-13T05:44:42.745Z,100.00
2022-10-13T05:47:09.309Z,100.00
2022-10-13T05:49:39.835Z,100.00
2022-10-13T05:52:09.955Z,100.00
2022-10-13T05:54:44.209Z,100.00
2022-10-13T05:57:16.287Z,100.00
2022-10-13T05:59:58.184Z,100.00
2022-10-13T06:02:28.326Z,100.00
2022-10-13T06:04:57.473Z,100.00
2022-10-13T06:07:24.155Z,100.00
2022-10-13T06:09:50.824Z,100.00
2022-10-13T06:12:17.660Z,100.00
2022-10-13T06:14:44.390Z,100.00
2022-10-13T06:17:11.345Z,100.00
2022-10-13T06:19:42.726Z,100.00
2022-10-13T06:22:09.339Z,100.00
2022-10-13T06:24:35.839Z,100.00
2022-10-13T06:27:07.644Z,100.00
2022-10-13T06:29:36.262Z,100.00
2022-10-13T06:32:02.806Z,100.00
2022-10-13T06:34:29.358Z,100.00
2022-10-13T06:36:55.881Z,100.00
2022-10-13T06:39:22.560Z,100.00
2022-10-13T06:41:49.907Z,100.00
2022-10-13T06:44:16.462Z,100.00
2022-10-13T06:46:42.957Z,100.00
2022-10-13T06:49:10.341Z,100.00
2022-10-13T06:51:37.060Z,100.00
2022-10-13T06:54:03.700Z,100.00
2022-10-13T06:56:30.910Z,100.00
2022-10-13T06:58:58.766Z,100.00
2022-10-13T07:01:25.332Z,100.00
2022-10-13T07:03:52.382Z,100.00
2022-10-13T07:06:20.822Z,100.00
2022-10-13T07:08:49.415Z,100.00
2022-10-13T07:11:16.729Z,100.00
2022-10-13T07:13:48.594Z,100.00
2022-10-13T07:16:15.704Z,100.00
2022-10-13T07:18:42.426Z,100.00
2022-10-13T07:21:09.611Z,100.00
2022-10-13T07:23:36.236Z,100.00
2022-10-13T07:26:07.434Z,100.00
2022-10-13T07:28:34.063Z,100.00
2022-10-13T07:31:00.667Z,100.00
2022-10-13T07:33:27.268Z,100.00
2022-10-13T07:35:53.838Z,100.00
2022-10-13T07:38:20.331Z,100.00
2022-10-13T07:40:47.830Z,100.00
2022-10-13T07:43:14.411Z,100.00
2022-10-13T07:45:41.209Z,100.00
2022-10-13T07:48:07.853Z,100.00
2022-10-13T07:50:34.488Z,100.00
2022-10-13T07:53:01.195Z,100.00
2022-10-13T07:55:27.805Z,100.00
2022-10-13T07:57:54.365Z,100.00
2022-10-13T08:00:21.489Z,100.00
2022-10-13T08:02:51.660Z,100.00
2022-10-13T08:05:18.318Z,100.00
2022-10-13T08:07:45.508Z,100.00
2022-10-13T08:10:12.872Z,100.00
2022-10-13T08:12:39.450Z,100.00
2022-10-13T08:15:06.872Z,100.00
2022-10-13T08:17:33.570Z,100.00
2022-10-13T08:20:00.115Z,100.00
2022-10-13T08:22:28.521Z,100.00
2022-10-13T08:24:55.904Z,100.00
2022-10-13T08:27:37.048Z,100.00
2022-10-13T08:30:11.825Z,100.00
2022-10-13T08:32:38.466Z,100.00
2022-10-13T08:35:05.419Z,100.00
2022-10-13T08:37:31.960Z,100.00
2022-10-13T08:39:58.881Z,100.00
2022-10-13T08:42:25.509Z,99.34
2022-10-13T08:47:55.366Z,96.67
2022-10-13T08:50:26.961Z,96.65
2022-10-13T08:52:56.397Z,95.62
2022-10-13T08:55:39.630Z,94.96
2022-10-13T08:58:31.478Z,94.61
2022-10-13T09:01:00.605Z,95.25
2022-10-13T09:03:29.816Z,93.89
2022-10-13T09:06:14.844Z,93.33
2022-10-13T09:08:52.513Z,92.35
2022-10-13T09:11:19.662Z,90.16
2022-10-13T09:13:46.200Z,89.27
2022-10-13T09:16:12.850Z,88.09
2022-10-13T09:18:39.606Z,88.19
2022-10-13T09:21:24.872Z,88.50
2022-10-13T09:23:54.050Z,89.06
2022-10-13T09:26:24.503Z,89.18
2022-10-13T09:28:52.463Z,87.94
2022-10-13T09:31:28.145Z,86.90
2022-10-13T09:34:02.630Z,87.07
2022-10-13T09:36:29.364Z,85.78
2022-10-13T09:39:13.792Z,86.32
2022-10-13T09:41:42.493Z,84.75
2022-10-13T09:44:17.282Z,84.34
2022-10-13T09:46:54.856Z,84.87
2022-10-13T09:49:42.873Z,84.51
2022-10-13T09:52:12.486Z,84.81
2022-10-13T09:54:51.006Z,84.53
2022-10-13T09:57:41.222Z,83.24
2022-10-13T10:00:14.556Z,84.33
2022-10-13T10:02:51.307Z,83.41
2022-10-13T10:05:38.000Z,81.05
2022-10-13T10:08:14.447Z,81.70
2022-10-13T10:10:41.769Z,82.08
2022-10-13T10:13:13.097Z,81.08
2022-10-13T10:15:42.687Z,81.53
2022-10-13T10:18:14.541Z,80.38
2022-10-13T10:21:18.442Z,80.53
2022-10-13T10:24:08.159Z,80.04
2022-10-13T10:26:40.828Z,80.12
2022-10-13T10:29:43.723Z,78.78
2022-10-13T10:32:16.241Z,79.02
2022-10-13T10:34:48.698Z,79.32
2022-10-13T10:37:15.352Z,79.08
2022-10-13T10:40:08.293Z,79.21
2022-10-13T10:42:53.093Z,78.12
2022-10-13T10:45:33.817Z,78.46
2022-10-13T10:48:12.359Z,78.49
2022-10-13T10:50:39.671Z,79.16
2022-10-13T10:53:33.821Z,78.68
2022-10-13T10:56:33.097Z,77.57
2022-10-13T10:59:21.943Z,77.80
2022-10-13T11:02:35.111Z,78.14
2022-10-13T11:05:05.398Z,76.06
2022-10-13T11:07:33.193Z,76.34
2022-10-13T11:09:59.705Z,76.97
2022-10-13T11:12:47.079Z,77.27
2022-10-13T11:15:26.175Z,77.65
2022-10-13T11:17:53.277Z,77.76
2022-10-13T11:20:19.928Z,77.21
2022-10-13T11:22:58.770Z,76.54
2022-10-13T11:25:34.197Z,76.73
2022-10-13T11:28:00.917Z,76.72
2022-10-13T11:30:50.212Z,76.45
2022-10-13T11:33:51.450Z,76.64
2022-10-13T11:36:49.999Z,76.51
2022-10-13T11:42:31.373Z,76.32
2022-10-13T11:45:01.921Z,75.61
2022-10-13T11:47:39.235Z,76.94
2022-10-13T11:50:44.243Z,75.79
2022-10-13T11:53:26.167Z,75.17
2022-10-13T11:55:58.940Z,75.32
2022-10-13T11:58:34.246Z,74.95
2022-10-13T12:01:03.372Z,74.58
2022-10-13T12:03:38.514Z,75.67
2022-10-13T12:06:33.383Z,71.27
2022-10-13T12:09:15.241Z,74.09
2022-10-13T12:11:42.080Z,73.38
2022-10-13T12:14:20.976Z,72.95
2022-10-13T12:19:26.001Z,71.73
2022-10-13T12:21:55.573Z,72.24
2022-10-13T12:24:26.838Z,68.48
2022-10-13T12:26:54.205Z,68.14
2022-10-13T12:29:25.320Z,67.32
2022-10-13T12:31:52.065Z,65.89
2022-10-13T12:34:32.754Z,65.32
2022-10-13T12:37:03.086Z,63.89
2022-10-13T12:39:32.019Z,64.74
2022-10-13T12:42:00.801Z,66.89
2022-10-13T12:44:30.078Z,65.77
2022-10-13T12:46:59.144Z,64.83
2022-10-13T12:49:32.213Z,64.07
2022-10-13T12:52:11.252Z,65.45
2022-10-13T12:54:40.783Z,64.39
2022-10-13T12:57:17.087Z,64.54
2022-10-13T12:59:43.868Z,65.55
2022-10-13T13:02:29.284Z,65.67
2022-10-13T13:04:56.342Z,62.98
2022-10-13T13:07:36.929Z,63.96
2022-10-13T13:10:03.474Z,63.57
2022-10-13T13:12:31.208Z,62.18
2022-10-13T13:14:58.451Z,62.34
2022-10-13T13:17:52.881Z,61.70
2022-10-13T13:20:29.393Z,64.28
2022-10-13T13:22:57.526Z,63.62
2022-10-13T13:25:24.488Z,63.59
2022-10-13T13:27:52.182Z,64.42
2022-10-13T13:30:21.541Z,64.71
2022-10-13T13:32:48.362Z,64.12
2022-10-13T13:35:15.187Z,64.06
2022-10-13T13:37:51.409Z,65.33
2022-10-13T13:40:26.242Z,64.22
2022-10-13T13:42:53.417Z,65.85
2022-10-13T13:45:25.298Z,65.23
2022-10-13T13:47:55.824Z,67.54
2022-10-13T13:50:37.473Z,67.10
2022-10-13T13:53:04.734Z,66.88
2022-10-13T13:55:31.324Z,67.18
2022-10-13T13:57:58.415Z,67.03
2022-10-13T14:00:25.374Z,67.33
2022-10-13T14:02:55.105Z,68.10
2022-10-13T14:05:21.661Z,67.67
2022-10-13T14:07:48.315Z,67.58
2022-10-13T14:10:14.988Z,67.92
2022-10-13T14:12:41.594Z,67.13
2022-10-13T14:15:08.910Z,67.78
2022-10-13T14:17:35.586Z,66.89
2022-10-13T14:20:02.172Z,67.99
2022-10-13T14:22:28.821Z,69.72
2022-10-13T14:24:55.448Z,68.71
2022-10-13T14:27:22.792Z,68.67
2022-10-13T14:29:49.585Z,69.28
2022-10-13T14:32:20.462Z,69.26
2022-10-13T14:34:47.504Z,70.08
2022-10-13T14:37:14.082Z,71.94
2022-10-13T14:39:40.614Z,72.46
2022-10-13T14:42:07.251Z,73.64
2022-10-13T14:44:34.141Z,73.43
2022-10-13T14:47:02.315Z,73.15
2022-10-13T14:49:29.314Z,73.00
2022-10-13T14:51:55.848Z,73.44
2022-10-13T14:54:22.515Z,73.87
2022-10-13T14:56:49.128Z,73.32
2022-10-13T14:59:16.036Z,73.52
2022-10-13T15:01:43.413Z,73.02
2022-10-13T15:04:10.564Z,73.73
2022-10-13T15:06:40.464Z,74.40
2022-10-13T15:11:40.201Z,75.19
2022-10-13T15:14:07.518Z,76.08
2022-10-13T15:16:34.283Z,76.60
2022-10-13T15:19:01.090Z,76.19
2022-10-13T15:21:27.654Z,76.89
2022-10-13T15:23:54.246Z,77.94
2022-10-13T15:26:20.835Z,79.23
2022-10-13T15:28:50.570Z,80.21
2022-10-13T15:31:18.852Z,81.71
2022-10-13T15:33:47.078Z,83.24
2022-10-13T15:36:14.065Z,85.04
2022-10-13T15:38:40.818Z,84.98
2022-10-13T15:41:07.907Z,86.47
2022-10-13T15:43:34.706Z,86.55
2022-10-13T15:46:12.721Z,86.48
2022-10-13T15:48:39.889Z,87.58
2022-10-13T15:51:14.389Z,87.92
2022-10-13T15:53:40.940Z,88.48
2022-10-13T15:56:08.359Z,89.26
2022-10-13T15:58:35.944Z,89.64
2022-10-13T16:01:08.241Z,89.06
2022-10-13T16:03:35.324Z,89.54
2022-10-13T16:06:10.388Z,90.55
2022-10-13T16:08:43.614Z,90.54
2022-10-13T16:11:12.369Z,91.09
2022-10-13T16:13:39.879Z,91.57
2022-10-13T16:16:06.903Z,91.39
2022-10-13T16:18:35.896Z,92.53
2022-10-13T16:21:18.873Z,92.54
2022-10-13T16:23:46.760Z,92.73
2022-10-13T16:26:13.655Z,93.13
2022-10-13T16:28:40.537Z,93.19
2022-10-13T16:31:15.079Z,93.35
2022-10-13T16:33:43.354Z,94.66
2022-10-13T16:36:12.979Z,94.19
2022-10-13T16:38:40.247Z,94.27
2022-10-13T16:41:10.141Z,94.56
2022-10-13T16:43:36.854Z,94.85
2022-10-13T16:46:05.161Z,95.96
2022-10-13T16:48:33.251Z,95.78
2022-10-13T16:51:05.221Z,96.29
2022-10-13T16:53:31.898Z,96.38
2022-10-13T16:55:58.488Z,97.09
2022-10-13T16:58:25.125Z,97.65
2022-10-13T17:00:51.795Z,98.20
2022-10-13T17:03:18.432Z,99.28
2022-10-13T17:05:52.997Z,98.66
2022-10-13T17:08:19.510Z,98.45
2022-10-13T17:10:46.199Z,99.27
2022-10-13T17:13:12.785Z,98.72
2022-10-13T17:15:39.327Z,98.61
2022-10-13T17:18:06.057Z,98.86
2022-10-13T17:20:32.812Z,98.67
2022-10-13T17:22:59.379Z,99.69
2022-10-13T17:25:26.009Z,99.23
2022-10-13T17:27:52.526Z,99.40
2022-10-13T17:30:19.409Z,99.67
2022-10-13T17:32:45.920Z,100.00
2022-10-13T17:35:17.872Z,100.00
2022-10-13T17:37:44.754Z,100.00
2022-10-13T17:40:12.244Z,100.00
2022-10-13T17:42:38.977Z,100.00
2022-10-13T17:45:05.907Z,100.00
2022-10-13T17:47:32.502Z,100.00
2022-10-13T17:49:59.070Z,100.00
2022-10-13T17:52:26.707Z,100.00
2022-10-13T17:54:53.416Z,100.00
2022-10-13T17:57:21.630Z,100.00
2022-10-13T17:59:52.906Z,100.00
2022-10-13T18:02:19.495Z,100.00
2022-10-13T18:04:46.416Z,100.00
2022-10-13T18:07:13.133Z,100.00
2022-10-13T18:09:39.927Z,100.00
2022-10-13T18:12:06.721Z,100.00
2022-10-13T18:14:33.500Z,100.00
2022-10-13T18:17:00.296Z,100.00
2022-10-13T18:19:26.853Z,100.00
2022-10-13T18:21:53.678Z,100.00
2022-10-13T18:24:20.424Z,100.00
2022-10-13T18:26:47.689Z,100.00
2022-10-13T18:29:14.470Z,100.00
2022-10-13T18:31:42.198Z,100.00
2022-10-13T18:34:15.146Z,100.00
2022-10-13T18:36:44.915Z,100.00
2022-10-13T18:39:14.420Z,100.00
2022-10-13T18:41:43.906Z,100.00
2022-10-13T18:44:11.082Z,100.00
2022-10-13T18:46:39.040Z,100.00
2022-10-13T18:49:07.584Z,100.00
2022-10-13T18:51:36.627Z,100.00
2022-10-13T18:54:04.720Z,100.00
2022-10-13T18:56:33.198Z,100.00
2022-10-13T18:59:01.937Z,100.00
2022-10-13T19:01:31.140Z,100.00
2022-10-13T19:03:58.074Z,100.00
2022-10-13T19:06:27.123Z,100.00
2022-10-13T19:09:00.787Z,100.00
2022-10-13T19:11:28.769Z,100.00
2022-10-13T19:13:55.973Z,100.00
2022-10-13T19:16:24.526Z,100.00
2022-10-13T19:18:52.231Z,100.00
2022-10-13T19:21:20.395Z,100.00
2022-10-13T19:23:47.179Z,100.00
2022-10-13T19:26:21.428Z,100.00
2022-10-13T19:28:48.334Z,100.00
2022-10-13T19:31:21.271Z,100.00
2022-10-13T19:33:50.186Z,100.00
2022-10-13T19:36:30.480Z,100.00
2022-10-13T19:39:01.006Z,100.00
2022-10-13T19:41:29.840Z,100.00
2022-10-13T19:43:56.712Z,100.00
2022-10-13T19:46:24.387Z,100.00
2022-10-13T19:48:51.308Z,100.00
2022-10-13T19:51:18.094Z,100.00
2022-10-13T19:53:44.813Z,100.00
2022-10-13T19:56:38.186Z,100.00
2022-10-13T19:59:07.914Z,100.00
2022-10-13T20:01:40.064Z,100.00
2022-10-13T20:04:12.406Z,100.00
2022-10-13T20:06:39.923Z,100.00
2022-10-13T20:09:06.629Z,100.00
2022-10-13T20:11:33.605Z,100.00
2022-10-13T20:14:00.483Z,100.00
2022-10-13T20:16:27.623Z,100.00
2022-10-13T20:18:56.682Z,100.00
2022-10-13T20:21:24.766Z,100.00
2022-10-13T20:23:51.847Z,100.00
2022-10-13T20:26:19.342Z,100.00
2022-10-13T20:28:48.318Z,100.00
2022-10-13T20:31:18.214Z,100.00
2022-10-13T20:33:46.939Z,100.00
2022-10-13T20:36:16.631Z,100.00
2022-10-13T20:38:43.350Z,100.00
2022-10-13T20:41:22.467Z,100.00
2022-10-13T20:43:49.787Z,100.00
2022-10-13T20:46:18.052Z,100.00
2022-10-13T20:49:09.334Z,100.00
2022-10-13T20:51:31.587Z,100.00
2022-10-13T20:53:58.428Z,100.00
2022-10-13T20:56:26.860Z,100.00
2022-10-13T20:58:54.058Z,100.00
2022-10-13T21:01:22.288Z,100.00
2022-10-13T21:03:52.957Z,100.00
2022-10-13T21:06:20.140Z,100.00
2022-10-13T21:08:47.208Z,100.00
2022-10-13T21:11:15.689Z,100.00
2022-10-13T21:13:43.861Z,100.00
2022-10-13T21:16:16.219Z,100.00
2022-10-13T21:18:50.851Z,100.00
2022-10-13T21:21:22.588Z,100.00
2022-10-13T21:23:59.513Z,100.00
2022-10-13T21:26:27.814Z,100.00
2022-10-13T21:28:54.709Z,100.00
2022-10-13T21:31:23.239Z,100.00
2022-10-13T21:33:50.645Z,100.00
2022-10-13T21:36:20.140Z,100.00
2022-10-13T21:38:47.204Z,100.00
2022-10-13T21:41:14.670Z,100.00
2022-10-13T21:43:41.691Z,100.00
2022-10-13T21:46:16.073Z,100.00
2022-10-13T21:48:44.029Z,100.00
2022-10-13T21:51:21.178Z,100.00
2022-10-13T21:53:53.437Z,100.00
2022-10-13T21:56:20.930Z,100.00
2022-10-13T21:58:48.888Z,100.00
2022-10-13T22:01:19.634Z,100.00
2022-10-13T22:03:47.245Z,100.00
2022-10-13T22:06:19.283Z,100.00
2022-10-13T22:08:48.394Z,100.00
2022-10-13T22:11:21.696Z,100.00
2022-10-13T22:13:48.284Z,100.00
2022-10-13T22:16:34.202Z,100.00
2022-10-13T22:19:01.173Z,100.00
2022-10-13T22:21:31.318Z,100.00
2022-10-13T22:24:00.254Z,100.00
2022-10-13T22:26:29.089Z,100.00
2022-10-13T22:29:00.026Z,100.00
2022-10-13T22:31:27.907Z,100.00
2022-10-13T22:33:54.895Z,100.00
2022-10-13T22:36:24.161Z,100.00
2022-10-13T22:38:53.037Z,100.00
2022-10-13T22:41:20.753Z,100.00
2022-10-13T22:43:56.338Z,100.00
2022-10-13T22:46:35.821Z,100.00
2022-10-13T22:49:03.092Z,100.00
2022-10-13T22:51:32.024Z,100.00
2022-10-13T22:53:59.430Z,100.00
2022-10-13T22:56:31.802Z,100.00
2022-10-13T22:59:05.050Z,100.00
2022-10-13T23:01:31.909Z,100.00
2022-10-13T23:03:59.221Z,100.00
2022-10-13T23:06:28.692Z,100.00
2022-10-13T23:08:55.425Z,100.00
2022-10-13T23:11:22.160Z,100.00
2022-10-13T23:13:49.231Z,100.00
2022-10-13T23:16:19.268Z,100.00
2022-10-13T23:18:46.568Z,100.00
2022-10-13T23:21:24.408Z,100.00
2022-10-13T23:24:10.861Z,100.00
2022-10-13T23:26:37.624Z,100.00
2022-10-13T23:29:05.081Z,100.00
2022-10-13T23:31:31.966Z,100.00
2022-10-13T23:33:58.968Z,100.00
2022-10-13T23:36:27.664Z,100.00
2022-10-13T23:39:00.363Z,100.00
2022-10-13T23:41:27.761Z,100.00
2022-10-13T23:43:54.372Z,100.00
2022-10-13T23:46:21.269Z,100.00
2022-10-13T23:48:48.038Z,100.00
2022-10-13T23:51:17.423Z,100.00
2022-10-13T23:53:44.491Z,100.00
2022-10-13T23:56:12.946Z,100.00
2022-10-13T23:58:41.244Z,100.00
